createdAt,value
2023-05-31T00:01:02.168Z,10.14
2023-05-31T00:03:28.828Z,10.15
2023-05-31T00:05:55.350Z,10.05
2023-05-31T00:08:21.843Z,10.10
2023-05-31T00:10:48.360Z,10.05
2023-05-31T00:13:15.043Z,10.03
2023-05-31T00:15:41.805Z,10.04
2023-05-31T00:18:08.291Z,10.01
2023-05-31T00:20:34.770Z,9.85
2023-05-31T00:23:01.396Z,9.97
2023-05-31T00:25:27.842Z,9.93
2023-05-31T00:27:56.136Z,9.92
2023-05-31T00:30:22.550Z,9.85
2023-05-31T00:32:49.154Z,9.88
2023-05-31T00:35:15.732Z,9.85
2023-05-31T00:37:42.176Z,9.84
2023-05-31T00:40:09.252Z,9.81
2023-05-31T00:42:35.990Z,9.77
2023-05-31T00:45:02.583Z,9.66
2023-05-31T00:47:29.764Z,9.76
2023-05-31T00:49:57.046Z,9.51
2023-05-31T00:52:24.279Z,9.71
2023-05-31T00:54:51.669Z,9.67
2023-05-31T00:57:18.376Z,9.61
2023-05-31T00:59:45.531Z,9.67
2023-05-31T01:02:15.691Z,9.64
2023-05-31T01:04:42.180Z,9.63
2023-05-31T01:07:09.396Z,9.56
2023-05-31T01:09:38.041Z,9.61
2023-05-31T01:12:32.357Z,9.59
2023-05-31T01:15:11.067Z,9.54
2023-05-31T01:17:46.044Z,9.46
2023-05-31T01:20:16.395Z,9.48
2023-05-31T01:23:07.917Z,9.45
2023-05-31T01:26:18.488Z,9.43
2023-05-31T01:28:50.538Z,9.36
2023-05-31T01:31:21.296Z,9.35
2023-05-31T01:33:49.728Z,9.32
2023-05-31T01:36:16.480Z,9.30
2023-05-31T01:38:42.939Z,9.24
2023-05-31T01:41:13.263Z,9.03
2023-05-31T01:43:42.382Z,9.33
2023-05-31T01:46:10.745Z,9.22
2023-05-31T01:48:38.175Z,9.20
2023-05-31T01:51:09.888Z,9.17
2023-05-31T01:53:36.588Z,9.09
2023-05-31T01:56:06.465Z,9.13
2023-05-31T01:58:35.612Z,8.94
2023-05-31T02:01:02.695Z,9.13
2023-05-31T02:03:29.813Z,9.12
2023-05-31T02:06:00.582Z,9.09
2023-05-31T02:08:28.000Z,9.06
2023-05-31T02:10:55.183Z,9.08
2023-05-31T02:13:26.823Z,9.02
2023-05-31T02:15:53.571Z,9.03
2023-05-31T02:18:20.057Z,8.99
2023-05-31T02:20:46.740Z,8.99
2023-05-31T02:23:13.317Z,8.94
2023-05-31T02:25:39.757Z,8.94
2023-05-31T02:28:06.282Z,8.91
2023-05-31T02:30:34.132Z,8.90
2023-05-31T02:33:03.354Z,8.86
2023-05-31T02:35:29.882Z,8.87
2023-05-31T02:37:56.509Z,8.84
2023-05-31T02:40:23.139Z,8.80
2023-05-31T02:42:49.615Z,8.77
2023-05-31T02:45:16.335Z,8.74
2023-05-31T02:47:42.982Z,8.67
2023-05-31T02:50:11.274Z,8.64
2023-05-31T02:52:38.499Z,8.65
2023-05-31T02:55:06.472Z,8.62
2023-05-31T02:57:32.986Z,8.54
2023-05-31T03:00:09.837Z,8.58
2023-05-31T03:02:36.417Z,8.56
2023-05-31T03:05:05.237Z,8.56
2023-05-31T03:07:31.768Z,8.54
2023-05-31T03:09:58.307Z,8.53
2023-05-31T03:12:24.800Z,8.52
2023-05-31T03:14:51.324Z,8.52
2023-05-31T03:17:17.817Z,8.33
2023-05-31T03:19:44.306Z,8.51
2023-05-31T03:22:10.770Z,8.50
2023-05-31T03:24:37.253Z,8.49
2023-05-31T03:27:04.101Z,8.47
2023-05-31T03:29:30.985Z,8.37
2023-05-31T03:31:57.501Z,8.48
2023-05-31T03:34:24.120Z,8.46
2023-05-31T03:36:51.912Z,8.45
2023-05-31T03:39:18.349Z,8.48
2023-05-31T03:41:44.787Z,8.48
2023-05-31T03:44:11.389Z,8.48
2023-05-31T03:46:37.819Z,8.43
2023-05-31T03:49:06.573Z,8.50
2023-05-31T03:51:33.115Z,8.48
2023-05-31T03:53:59.613Z,8.28
2023-05-31T03:56:26.358Z,8.55
2023-05-31T03:58:52.873Z,8.57
2023-05-31T04:01:19.318Z,8.62
2023-05-31T04:03:46.359Z,8.49
2023-05-31T04:06:13.023Z,8.62
2023-05-31T04:08:39.486Z,8.71
2023-05-31T04:11:05.993Z,8.72
2023-05-31T04:13:32.412Z,8.77
2023-05-31T04:15:59.584Z,8.73
2023-05-31T04:18:26.110Z,8.76
2023-05-31T04:20:52.881Z,8.93
2023-05-31T04:23:19.423Z,8.75
2023-05-31T04:25:46.172Z,9.04
2023-05-31T04:28:13.836Z,9.11
2023-05-31T04:30:40.526Z,9.06
2023-05-31T04:33:07.324Z,9.25
2023-05-31T04:35:34.863Z,9.33
2023-05-31T04:38:03.612Z,9.41
2023-05-31T04:40:32.988Z,9.21
2023-05-31T04:43:01.770Z,9.56
2023-05-31T04:45:28.466Z,9.68
2023-05-31T04:47:56.263Z,9.77
2023-05-31T04:50:22.846Z,9.87
2023-05-31T04:52:49.330Z,9.96
2023-05-31T04:55:15.879Z,10.07
2023-05-31T04:57:42.361Z,10.17
2023-05-31T05:00:11.123Z,10.29
2023-05-31T05:02:37.724Z,10.40
2023-05-31T05:05:08.190Z,10.50
2023-05-31T05:07:34.638Z,10.61
2023-05-31T05:10:01.733Z,10.72
2023-05-31T05:12:28.176Z,10.82
2023-05-31T05:14:54.582Z,10.92
2023-05-31T05:17:21.639Z,10.97
2023-05-31T05:19:48.115Z,11.16
2023-05-31T05:22:14.725Z,11.27
2023-05-31T05:24:41.248Z,11.38
2023-05-31T05:27:07.908Z,11.46
2023-05-31T05:29:34.481Z,11.48
2023-05-31T05:32:01.109Z,11.72
2023-05-31T05:34:27.828Z,11.39
2023-05-31T05:36:54.684Z,11.89
2023-05-31T05:39:21.704Z,12.06
2023-05-31T05:41:48.129Z,12.16
2023-05-31T05:44:14.623Z,12.28
2023-05-31T05:46:41.170Z,12.41
2023-05-31T05:49:07.625Z,12.49
2023-05-31T05:51:35.241Z,12.53
2023-05-31T05:54:01.705Z,12.66
2023-05-31T05:56:28.239Z,12.91
2023-05-31T05:58:54.689Z,13.05
2023-05-31T06:01:21.478Z,13.21
2023-05-31T06:03:51.609Z,13.38
2023-05-31T06:06:18.250Z,13.65
2023-05-31T06:08:46.141Z,13.78
2023-05-31T06:11:13.034Z,13.73
2023-05-31T06:13:39.573Z,14.14
2023-05-31T06:16:06.490Z,14.34
2023-05-31T06:18:32.998Z,14.53
2023-05-31T06:21:00.049Z,14.71
2023-05-31T06:23:26.956Z,14.81
2023-05-31T06:25:53.647Z,15.03
2023-05-31T06:28:20.282Z,15.31
2023-05-31T06:30:47.114Z,15.38
2023-05-31T06:33:13.925Z,15.66
2023-05-31T06:35:43.731Z,15.92
2023-05-31T06:38:15.956Z,16.09
2023-05-31T06:40:44.150Z,16.37
2023-05-31T06:43:13.777Z,16.45
2023-05-31T06:45:42.995Z,16.80
2023-05-31T06:48:10.432Z,17.00
2023-05-31T06:50:37.356Z,17.13
2023-05-31T06:53:04.064Z,17.36
2023-05-31T06:55:30.743Z,17.56
2023-05-31T06:57:57.326Z,17.79
2023-05-31T07:00:23.792Z,18.02
2023-05-31T07:02:50.719Z,18.25
2023-05-31T07:05:17.184Z,18.48
2023-05-31T07:07:43.632Z,18.64
2023-05-31T07:10:10.453Z,18.78
2023-05-31T07:12:36.932Z,18.83
2023-05-31T07:15:03.607Z,19.15
2023-05-31T07:17:30.666Z,19.29
2023-05-31T07:19:57.656Z,19.54
2023-05-31T07:22:24.178Z,19.57
2023-05-31T07:24:50.939Z,19.87
2023-05-31T07:27:17.541Z,19.87
2023-05-31T07:29:44.018Z,20.08
2023-05-31T07:32:10.590Z,20.15
2023-05-31T07:34:37.202Z,20.29
2023-05-31T07:37:03.705Z,20.36
2023-05-31T07:39:30.571Z,20.43
2023-05-31T07:41:59.551Z,20.53
2023-05-31T07:44:26.319Z,20.61
2023-05-31T07:46:52.831Z,20.68
2023-05-31T07:49:19.417Z,20.67
2023-05-31T07:51:46.141Z,20.85
2023-05-31T07:54:12.720Z,20.83
2023-05-31T07:56:39.586Z,20.97
2023-05-31T07:59:07.737Z,21.03
2023-05-31T08:01:34.882Z,21.13
2023-05-31T08:04:09.162Z,21.24
2023-05-31T08:06:36.070Z,21.22
2023-05-31T08:09:02.917Z,21.37
2023-05-31T08:11:29.631Z,21.44
2023-05-31T08:13:56.110Z,21.46
2023-05-31T08:16:22.905Z,21.61
2023-05-31T08:18:53.140Z,21.66
2023-05-31T08:21:19.727Z,21.69
2023-05-31T08:23:46.228Z,21.78
2023-05-31T08:26:12.937Z,21.79
2023-05-31T08:28:39.453Z,21.73
2023-05-31T08:31:06.119Z,21.80
2023-05-31T08:33:33.460Z,21.86
2023-05-31T08:36:00.953Z,21.94
2023-05-31T08:38:28.833Z,21.81
2023-05-31T08:41:02.066Z,22.06
2023-05-31T08:43:29.925Z,22.13
2023-05-31T08:45:56.861Z,22.21
2023-05-31T08:48:36.509Z,22.29
2023-05-31T08:51:06.302Z,22.38
2023-05-31T08:53:34.650Z,22.38
2023-05-31T08:56:05.646Z,22.45
2023-05-31T08:58:32.287Z,22.53
2023-05-31T09:00:59.870Z,22.57
2023-05-31T09:03:27.686Z,22.61
2023-05-31T09:05:56.516Z,22.74
2023-05-31T09:08:23.635Z,22.70
2023-05-31T09:10:51.081Z,22.76
2023-05-31T09:13:17.649Z,23.06
2023-05-31T09:15:48.564Z,23.12
2023-05-31T09:18:26.400Z,23.34
2023-05-31T09:20:54.600Z,23.43
2023-05-31T09:23:21.239Z,23.67
2023-05-31T09:25:48.597Z,23.84
2023-05-31T09:28:17.932Z,24.00
2023-05-31T09:30:44.734Z,24.24
2023-05-31T09:33:11.963Z,24.45
2023-05-31T09:35:38.556Z,24.78
2023-05-31T09:38:07.482Z,24.77
2023-05-31T09:40:34.786Z,25.14
2023-05-31T09:43:01.809Z,25.46
2023-05-31T09:45:29.622Z,25.63
2023-05-31T09:47:56.564Z,25.88
2023-05-31T09:50:24.341Z,26.06
2023-05-31T09:52:57.093Z,26.24
2023-05-31T09:55:23.801Z,26.36
2023-05-31T09:57:53.299Z,26.54
2023-05-31T10:00:20.397Z,26.81
2023-05-31T10:02:48.784Z,27.01
2023-05-31T10:05:16.739Z,27.03
2023-05-31T10:07:45.046Z,27.26
2023-05-31T10:10:12.349Z,27.28
2023-05-31T10:13:00.615Z,27.64
2023-05-31T10:15:32.980Z,27.62
2023-05-31T10:18:03.713Z,27.57
2023-05-31T10:20:53.081Z,27.59
2023-05-31T10:23:23.501Z,27.58
2023-05-31T10:26:22.723Z,27.65
2023-05-31T10:29:14.543Z,27.79
2023-05-31T10:31:51.212Z,27.67
2023-05-31T10:34:26.785Z,27.52
2023-05-31T10:36:55.372Z,27.55
2023-05-31T10:39:39.481Z,27.63
2023-05-31T10:42:44.215Z,27.65
2023-05-31T10:45:23.652Z,27.50
2023-05-31T10:48:04.185Z,27.52
2023-05-31T10:50:30.851Z,27.43
2023-05-31T10:53:12.158Z,27.50
2023-05-31T10:55:44.086Z,27.46
2023-05-31T10:58:28.125Z,27.60
2023-05-31T11:00:56.559Z,27.62
2023-05-31T11:03:27.273Z,27.65
2023-05-31T11:05:57.165Z,27.97
2023-05-31T11:08:24.256Z,28.39
2023-05-31T11:10:51.285Z,28.09
2023-05-31T11:13:18.076Z,28.14
2023-05-31T11:15:46.683Z,28.17
2023-05-31T11:18:24.765Z,28.27
2023-05-31T11:20:51.835Z,28.22
2023-05-31T11:23:18.460Z,28.06
2023-05-31T11:25:45.744Z,28.02
2023-05-31T11:28:18.462Z,28.04
2023-05-31T11:30:47.316Z,28.03
2023-05-31T11:33:16.863Z,27.86
2023-05-31T11:35:43.595Z,27.95
2023-05-31T11:38:10.250Z,27.93
2023-05-31T11:40:37.180Z,28.08
2023-05-31T11:43:08.372Z,28.14
2023-05-31T11:45:40.524Z,28.13
2023-05-31T11:48:26.196Z,28.13
2023-05-31T11:50:55.345Z,28.21
2023-05-31T11:53:22.451Z,28.23
2023-05-31T11:55:49.871Z,28.07
2023-05-31T11:58:20.305Z,28.04
2023-05-31T12:00:47.611Z,28.02
2023-05-31T12:03:18.723Z,28.14
2023-05-31T12:05:51.506Z,28.12
2023-05-31T12:08:18.329Z,28.05
2023-05-31T12:10:46.644Z,28.16
2023-05-31T12:13:16.637Z,28.11
2023-05-31T12:15:43.400Z,28.44
2023-05-31T12:18:10.005Z,28.25
2023-05-31T12:20:36.496Z,28.42
2023-05-31T12:23:13.561Z,28.32
2023-05-31T12:25:48.119Z,28.17
2023-05-31T12:28:17.595Z,28.11
2023-05-31T12:30:48.014Z,27.88
2023-05-31T12:33:15.182Z,27.84
2023-05-31T12:35:46.345Z,27.67
2023-05-31T12:38:13.560Z,27.53
2023-05-31T12:40:42.720Z,27.51
2023-05-31T12:43:10.173Z,27.35
2023-05-31T12:45:41.923Z,27.31
2023-05-31T12:48:10.515Z,27.33
2023-05-31T12:50:37.428Z,27.20
2023-05-31T12:53:07.521Z,27.28
2023-05-31T12:55:34.063Z,27.21
2023-05-31T12:58:04.039Z,27.07
2023-05-31T13:00:33.220Z,27.16
2023-05-31T13:02:59.942Z,27.27
2023-05-31T13:05:26.910Z,26.85
2023-05-31T13:07:54.927Z,27.21
2023-05-31T13:10:21.617Z,27.27
2023-05-31T13:12:48.075Z,27.28
2023-05-31T13:15:14.639Z,27.25
2023-05-31T13:17:41.150Z,27.18
2023-05-31T13:20:12.598Z,27.06
2023-05-31T13:22:40.085Z,26.77
2023-05-31T13:25:08.017Z,27.03
2023-05-31T13:27:34.707Z,26.79
2023-05-31T13:30:01.343Z,27.02
2023-05-31T13:32:29.090Z,27.10
2023-05-31T13:34:57.558Z,26.97
2023-05-31T13:37:25.877Z,26.94
2023-05-31T13:39:52.669Z,26.81
2023-05-31T13:42:19.455Z,26.74
2023-05-31T13:44:46.026Z,26.72
2023-05-31T13:47:12.494Z,26.57
2023-05-31T13:49:39.545Z,26.54
2023-05-31T13:52:08.831Z,26.40
2023-05-31T13:54:35.643Z,26.50
2023-05-31T13:57:02.524Z,26.19
2023-05-31T13:59:29.191Z,26.46
2023-05-31T14:01:55.792Z,26.49
2023-05-31T14:04:24.187Z,26.36
2023-05-31T14:06:51.406Z,26.45
2023-05-31T14:09:18.492Z,26.42
2023-05-31T14:11:45.153Z,26.38
2023-05-31T14:14:11.718Z,26.39
2023-05-31T14:16:38.260Z,26.22
2023-05-31T14:19:05.217Z,26.11
2023-05-31T14:21:33.400Z,26.05
2023-05-31T14:24:00.242Z,25.81
2023-05-31T14:26:28.207Z,25.84
2023-05-31T14:28:54.634Z,25.83
2023-05-31T14:31:21.445Z,25.80
2023-05-31T14:33:47.978Z,25.58
2023-05-31T14:36:14.972Z,25.70
2023-05-31T14:38:42.072Z,25.62
2023-05-31T14:41:08.562Z,25.60
2023-05-31T14:43:34.991Z,25.42
2023-05-31T14:46:01.509Z,25.43
2023-05-31T14:48:28.079Z,25.33
2023-05-31T14:50:54.515Z,25.32
2023-05-31T14:53:21.148Z,25.16
2023-05-31T14:55:47.634Z,24.95
2023-05-31T14:58:14.318Z,24.84
2023-05-31T15:00:40.797Z,24.81
2023-05-31T15:03:07.396Z,24.76
2023-05-31T15:05:33.994Z,24.75
2023-05-31T15:08:00.666Z,24.78
2023-05-31T15:10:27.595Z,24.68
2023-05-31T15:12:54.533Z,24.55
2023-05-31T15:15:21.229Z,24.44
2023-05-31T15:17:47.886Z,24.37
2023-05-31T15:20:14.412Z,24.19
2023-05-31T15:22:41.051Z,24.13
2023-05-31T15:25:07.970Z,23.95
2023-05-31T15:27:34.772Z,23.90
2023-05-31T15:30:01.416Z,23.61
2023-05-31T15:32:28.073Z,23.70
2023-05-31T15:34:54.579Z,23.58
2023-05-31T15:37:21.056Z,23.73
2023-05-31T15:39:47.664Z,23.73
2023-05-31T15:42:14.126Z,23.36
2023-05-31T15:44:40.738Z,23.92
2023-05-31T15:47:07.902Z,23.80
2023-05-31T15:49:37.121Z,23.96
2023-05-31T15:52:03.761Z,23.86
2023-05-31T15:54:30.296Z,23.74
2023-05-31T15:56:56.817Z,23.83
2023-05-31T15:59:23.326Z,23.83
2023-05-31T16:01:49.896Z,23.85
2023-05-31T16:04:16.525Z,23.62
2023-05-31T16:06:43.075Z,23.82
2023-05-31T16:09:09.843Z,23.83
2023-05-31T16:11:36.686Z,24.08
2023-05-31T16:14:03.304Z,24.11
2023-05-31T16:16:29.875Z,24.07
2023-05-31T16:18:56.539Z,24.05
2023-05-31T16:21:23.065Z,23.97
2023-05-31T16:23:49.565Z,23.94
2023-05-31T16:26:16.065Z,23.87
2023-05-31T16:28:42.569Z,23.70
2023-05-31T16:31:14.184Z,23.89
2023-05-31T16:33:41.592Z,23.73
2023-05-31T16:36:08.171Z,23.79
2023-05-31T16:38:34.740Z,23.61
2023-05-31T16:41:01.778Z,23.66
2023-05-31T16:43:28.646Z,23.54
2023-05-31T16:45:55.375Z,23.51
2023-05-31T16:48:22.042Z,23.42
2023-05-31T16:50:50.376Z,22.95
2023-05-31T16:53:18.070Z,23.33
2023-05-31T16:55:44.696Z,23.24
2023-05-31T16:58:11.194Z,22.98
2023-05-31T17:00:37.843Z,23.14
2023-05-31T17:03:04.850Z,23.00
2023-05-31T17:05:31.527Z,22.91
2023-05-31T17:07:58.059Z,22.85
2023-05-31T17:10:24.718Z,22.78
2023-05-31T17:12:51.298Z,22.80
2023-05-31T17:15:17.937Z,22.71
2023-05-31T17:17:44.731Z,22.62
2023-05-31T17:20:12.291Z,22.44
2023-05-31T17:22:39.385Z,22.36
2023-05-31T17:25:06.470Z,22.29
2023-05-31T17:27:34.384Z,22.20
2023-05-31T17:30:01.268Z,22.09
2023-05-31T17:32:28.017Z,21.90
2023-05-31T17:34:54.535Z,21.86
2023-05-31T17:37:21.021Z,21.71
2023-05-31T17:39:47.438Z,21.50
2023-05-31T17:42:13.976Z,21.51
2023-05-31T17:44:40.532Z,21.48
2023-05-31T17:47:07.475Z,21.48
2023-05-31T17:49:33.958Z,21.42
2023-05-31T17:52:00.451Z,21.30
2023-05-31T17:54:26.868Z,21.32
2023-05-31T17:56:53.413Z,21.24
2023-05-31T17:59:22.253Z,21.31
2023-05-31T18:01:48.849Z,21.06
2023-05-31T18:04:15.506Z,21.12
2023-05-31T18:06:42.295Z,21.04
2023-05-31T18:09:09.298Z,20.93
2023-05-31T18:11:36.600Z,20.78
2023-05-31T18:14:03.387Z,20.61
2023-05-31T18:16:31.658Z,20.57
2023-05-31T18:18:58.427Z,20.44
2023-05-31T18:21:25.124Z,20.27
2023-05-31T18:23:52.043Z,20.09
2023-05-31T18:26:19.791Z,20.02
2023-05-31T18:28:48.635Z,20.01
2023-05-31T18:31:15.435Z,19.93
2023-05-31T18:33:42.016Z,19.69
2023-05-31T18:36:08.565Z,19.60
2023-05-31T18:38:47.463Z,19.39
2023-05-31T18:41:14.983Z,19.30
2023-05-31T18:43:42.065Z,18.92
2023-05-31T18:46:08.577Z,18.91
2023-05-31T18:48:37.400Z,18.71
2023-05-31T18:51:05.599Z,18.31
2023-05-31T18:53:33.617Z,18.03
2023-05-31T18:56:00.933Z,18.05
2023-05-31T18:58:27.940Z,17.83
2023-05-31T19:00:54.665Z,17.65
2023-05-31T19:03:21.321Z,17.41
2023-05-31T19:05:48.079Z,17.30
2023-05-31T19:08:14.580Z,17.15
2023-05-31T19:10:41.194Z,16.96
2023-05-31T19:13:09.613Z,16.85
2023-05-31T19:15:36.104Z,16.70
2023-05-31T19:18:16.770Z,16.43
2023-05-31T19:20:48.612Z,16.08
2023-05-31T19:23:16.915Z,16.10
2023-05-31T19:25:43.733Z,16.17
2023-05-31T19:28:10.547Z,16.05
2023-05-31T19:30:37.821Z,15.58
2023-05-31T19:33:04.516Z,15.59
2023-05-31T19:35:31.146Z,15.73
2023-05-31T19:37:57.772Z,15.63
2023-05-31T19:40:24.280Z,15.54
2023-05-31T19:42:51.039Z,15.41
2023-05-31T19:45:19.190Z,15.21
2023-05-31T19:47:47.505Z,15.29
2023-05-31T19:50:14.056Z,15.13
2023-05-31T19:52:40.688Z,15.11
2023-05-31T19:55:08.680Z,15.11
2023-05-31T19:57:35.422Z,14.80
2023-05-31T20:00:04.163Z,14.99
2023-05-31T20:02:30.694Z,15.10
2023-05-31T20:04:57.171Z,15.09
2023-05-31T20:07:23.767Z,15.07
2023-05-31T20:09:50.431Z,15.16
2023-05-31T20:12:17.380Z,15.18
2023-05-31T20:14:43.908Z,15.20
2023-05-31T20:17:10.912Z,15.14
2023-05-31T20:19:37.503Z,15.18
2023-05-31T20:22:04.205Z,15.08
2023-05-31T20:24:31.525Z,15.19
2023-05-31T20:26:57.938Z,15.12
2023-05-31T20:29:24.454Z,15.13
2023-05-31T20:31:51.011Z,15.14
2023-05-31T20:34:17.525Z,15.11
2023-05-31T20:36:44.071Z,15.10
2023-05-31T20:39:10.753Z,15.04
2023-05-31T20:41:37.439Z,14.81
2023-05-31T20:44:04.148Z,15.03
2023-05-31T20:46:30.808Z,15.00
2023-05-31T20:48:57.709Z,14.91
2023-05-31T20:51:24.158Z,14.90
2023-05-31T20:53:50.675Z,14.83
2023-05-31T20:56:17.706Z,14.81
2023-05-31T20:58:44.660Z,14.73
2023-05-31T21:01:15.101Z,14.73
2023-05-31T21:03:41.807Z,14.72
2023-05-31T21:06:08.480Z,14.70
2023-05-31T21:08:35.051Z,14.74
2023-05-31T21:11:01.906Z,14.72
2023-05-31T21:13:28.350Z,14.70
2023-05-31T21:15:54.877Z,14.70
2023-05-31T21:18:21.373Z,14.70
2023-05-31T21:20:47.846Z,14.70
2023-05-31T21:23:14.854Z,14.70
2023-05-31T21:25:41.425Z,14.67
2023-05-31T21:28:07.904Z,14.65
2023-05-31T21:30:34.362Z,14.64
2023-05-31T21:33:01.068Z,14.63
2023-05-31T21:35:27.635Z,14.60
2023-05-31T21:37:56.845Z,14.56
2023-05-31T21:40:24.442Z,14.54
2023-05-31T21:42:51.400Z,14.54
2023-05-31T21:45:18.020Z,14.34
2023-05-31T21:47:44.671Z,14.52
2023-05-31T21:50:11.369Z,14.53
2023-05-31T21:52:37.904Z,14.47
2023-05-31T21:55:06.432Z,14.51
2023-05-31T21:57:33.011Z,14.53
2023-05-31T22:00:00.459Z,14.54
2023-05-31T22:02:26.905Z,14.14
2023-05-31T22:04:53.798Z,14.45
2023-05-31T22:07:20.563Z,14.49
2023-05-31T22:09:47.217Z,14.46
2023-05-31T22:12:13.640Z,14.43
2023-05-31T22:14:41.052Z,14.27
2023-05-31T22:17:08.379Z,14.27
2023-05-31T22:19:37.991Z,14.43
2023-05-31T22:22:05.922Z,14.39
2023-05-31T22:24:32.504Z,14.23
2023-05-31T22:26:58.962Z,14.39
2023-05-31T22:29:25.581Z,14.38
2023-05-31T22:31:52.425Z,14.34
2023-05-31T22:34:20.060Z,14.33
2023-05-31T22:36:46.884Z,14.17
2023-05-31T22:39:13.721Z,14.28
2023-05-31T22:41:40.321Z,14.03
2023-05-31T22:44:07.882Z,14.25
2023-05-31T22:46:35.362Z,14.20
2023-05-31T22:49:02.060Z,14.19
2023-05-31T22:51:30.261Z,14.13
2023-05-31T22:53:56.938Z,14.14
2023-05-31T22:56:23.415Z,13.84
2023-05-31T22:58:49.922Z,13.78
2023-05-31T23:01:16.404Z,14.09
2023-05-31T23:03:43.190Z,13.96
2023-05-31T23:06:13.337Z,13.87
2023-05-31T23:08:44.360Z,13.89
2023-05-31T23:11:16.173Z,13.96
2023-05-31T23:13:43.214Z,14.10
2023-05-31T23:16:10.029Z,14.11
2023-05-31T23:18:36.625Z,14.07
2023-05-31T23:21:03.814Z,14.04
2023-05-31T23:23:30.461Z,14.05
2023-05-31T23:25:57.069Z,14.13
2023-05-31T23:28:23.508Z,14.11
2023-05-31T23:30:50.004Z,14.09
2023-05-31T23:33:17.415Z,14.11
2023-05-31T23:35:44.631Z,14.14
2023-05-31T23:38:11.453Z,14.11
2023-05-31T23:40:37.946Z,14.11
2023-05-31T23:43:04.427Z,14.16
2023-05-31T23:45:31.208Z,13.95
2023-05-31T23:47:57.866Z,14.17
2023-05-31T23:50:25.942Z,14.17
2023-05-31T23:52:52.581Z,14.16
2023-05-31T23:55:19.070Z,14.15
2023-05-31T23:57:45.512Z,14.09
